sensor_id;sensor_type;location;lat;lon;timestamp;P1;durP1;ratioP1;P2;durP2;ratioP2
8435;SDS011;4255;48.730;9.156;2022-12-19T00:02:11;62.33;;;29.10;;
8435;SDS011;4255;48.730;9.156;2022-12-19T00:04:36;59.63;;;29.80;;
8435;SDS011;4255;48.730;9.156;2022-12-19T00:07:02;57.23;;;26.53;;
8435;SDS011;4255;48.730;9.156;2022-12-19T00:09:27;61.47;;;29.50;;
8435;SDS011;4255;48.730;9.156;2022-12-19T00:11:53;54.00;;;26.63;;
8435;SDS011;4255;48.730;9.156;2022-12-19T00:14:19;58.57;;;26.27;;
8435;SDS011;4255;48.730;9.156;2022-12-19T00:16:44;47.80;;;24.87;;
8435;SDS011;4255;48.730;9.156;2022-12-19T00:19:10;55.15;;;26.65;;
8435;SDS011;4255;48.730;9.156;2022-12-19T00:21:36;52.95;;;26.23;;
8435;SDS011;4255;48.730;9.156;2022-12-19T00:24:03;61.53;;;27.40;;
8435;SDS011;4255;48.730;9.156;2022-12-19T00:26:30;57.78;;;26.50;;
8435;SDS011;4255;48.730;9.156;2022-12-19T00:29:02;54.35;;;24.38;;
8435;SDS011;4255;48.730;9.156;2022-12-19T00:31:30;60.88;;;24.60;;
8435;SDS011;4255;48.730;9.156;2022-12-19T00:33:57;48.30;;;26.17;;
8435;SDS011;4255;48.730;9.156;2022-12-19T00:36:24;58.20;;;26.15;;
8435;SDS011;4255;48.730;9.156;2022-12-19T00:38:52;49.58;;;26.48;;
8435;SDS011;4255;48.730;9.156;2022-12-19T00:43:46;61.90;;;26.65;;
8435;SDS011;4255;48.730;9.156;2022-12-19T00:46:16;52.13;;;25.42;;
8435;SDS011;4255;48.730;9.156;2022-12-19T00:48:42;53.90;;;28.13;;
8435;SDS011;4255;48.730;9.156;2022-12-19T00:51:12;53.80;;;25.88;;
8435;SDS011;4255;48.730;9.156;2022-12-19T00:53:40;55.80;;;28.13;;
8435;SDS011;4255;48.730;9.156;2022-12-19T00:56:06;58.63;;;25.43;;
8435;SDS011;4255;48.730;9.156;2022-12-19T00:58:35;55.55;;;26.20;;
8435;SDS011;4255;48.730;9.156;2022-12-19T01:01:08;51.17;;;26.40;;
8435;SDS011;4255;48.730;9.156;2022-12-19T01:03:37;53.53;;;26.35;;
8435;SDS011;4255;48.730;9.156;2022-12-19T01:06:02;58.57;;;26.47;;
8435;SDS011;4255;48.730;9.156;2022-12-19T01:08:28;61.67;;;27.15;;
8435;SDS011;4255;48.730;9.156;2022-12-19T01:10:54;48.77;;;24.47;;
8435;SDS011;4255;48.730;9.156;2022-12-19T01:13:20;59.00;;;26.67;;
8435;SDS011;4255;48.730;9.156;2022-12-19T01:15:47;55.00;;;24.75;;
8435;SDS011;4255;48.730;9.156;2022-12-19T01:18:13;49.60;;;25.95;;
8435;SDS011;4255;48.730;9.156;2022-12-19T01:20:43;47.40;;;25.83;;
8435;SDS011;4255;48.730;9.156;2022-12-19T01:23:12;55.72;;;27.83;;
8435;SDS011;4255;48.730;9.156;2022-12-19T01:25:38;46.75;;;24.17;;
8435;SDS011;4255;48.730;9.156;2022-12-19T01:28:04;57.23;;;26.27;;
8435;SDS011;4255;48.730;9.156;2022-12-19T01:30:31;59.60;;;25.75;;
8435;SDS011;4255;48.730;9.156;2022-12-19T01:32:57;57.00;;;25.45;;
8435;SDS011;4255;48.730;9.156;2022-12-19T01:35:24;57.50;;;27.88;;
8435;SDS011;4255;48.730;9.156;2022-12-19T01:37:50;55.90;;;26.57;;
8435;SDS011;4255;48.730;9.156;2022-12-19T01:40:16;56.38;;;28.35;;
8435;SDS011;4255;48.730;9.156;2022-12-19T01:42:42;60.47;;;28.75;;
8435;SDS011;4255;48.730;9.156;2022-12-19T01:50:37;58.05;;;27.40;;
8435;SDS011;4255;48.730;9.156;2022-12-19T01:53:09;60.97;;;30.98;;
8435;SDS011;4255;48.730;9.156;2022-12-19T01:55:37;41.42;;;24.17;;
8435;SDS011;4255;48.730;9.156;2022-12-19T01:58:04;58.13;;;27.88;;
8435;SDS011;4255;48.730;9.156;2022-12-19T02:00:31;58.78;;;29.25;;
8435;SDS011;4255;48.730;9.156;2022-12-19T02:02:59;50.27;;;26.87;;
8435;SDS011;4255;48.730;9.156;2022-12-19T02:05:40;53.15;;;27.75;;
8435;SDS011;4255;48.730;9.156;2022-12-19T02:08:06;58.47;;;30.83;;
8435;SDS011;4255;48.730;9.156;2022-12-19T02:10:32;61.07;;;32.63;;
8435;SDS011;4255;48.730;9.156;2022-12-19T02:12:58;68.03;;;31.00;;
8435;SDS011;4255;48.730;9.156;2022-12-19T02:15:24;57.77;;;31.07;;
8435;SDS011;4255;48.730;9.156;2022-12-19T02:18:05;59.55;;;28.90;;
8435;SDS011;4255;48.730;9.156;2022-12-19T02:20:44;61.35;;;32.70;;
8435;SDS011;4255;48.730;9.156;2022-12-19T02:26:09;63.03;;;32.22;;
8435;SDS011;4255;48.730;9.156;2022-12-19T02:32:18;64.95;;;31.80;;
8435;SDS011;4255;48.730;9.156;2022-12-19T02:34:55;69.47;;;34.95;;
8435;SDS011;4255;48.730;9.156;2022-12-19T02:37:26;73.55;;;33.70;;
8435;SDS011;4255;48.730;9.156;2022-12-19T02:39:55;65.78;;;29.50;;
8435;SDS011;4255;48.730;9.156;2022-12-19T02:42:27;59.42;;;30.70;;
8435;SDS011;4255;48.730;9.156;2022-12-19T02:44:55;66.38;;;29.38;;
8435;SDS011;4255;48.730;9.156;2022-12-19T02:47:25;60.97;;;32.60;;
8435;SDS011;4255;48.730;9.156;2022-12-19T02:49:52;62.10;;;30.17;;
8435;SDS011;4255;48.730;9.156;2022-12-19T02:54:43;51.07;;;29.80;;
8435;SDS011;4255;48.730;9.156;2022-12-19T03:00:07;56.60;;;28.98;;
8435;SDS011;4255;48.730;9.156;2022-12-19T03:02:35;59.75;;;28.50;;
8435;SDS011;4255;48.730;9.156;2022-12-19T03:15:57;52.55;;;25.67;;
8435;SDS011;4255;48.730;9.156;2022-12-19T03:18:24;48.75;;;24.70;;
8435;SDS011;4255;48.730;9.156;2022-12-19T03:23:53;55.58;;;27.27;;
8435;SDS011;4255;48.730;9.156;2022-12-19T03:26:22;56.20;;;26.33;;
8435;SDS011;4255;48.730;9.156;2022-12-19T03:28:52;49.53;;;26.90;;
8435;SDS011;4255;48.730;9.156;2022-12-19T03:31:27;56.95;;;26.73;;
8435;SDS011;4255;48.730;9.156;2022-12-19T03:33:56;57.33;;;29.67;;
8435;SDS011;4255;48.730;9.156;2022-12-19T03:36:32;58.33;;;29.30;;
8435;SDS011;4255;48.730;9.156;2022-12-19T03:39:06;65.60;;;33.15;;
8435;SDS011;4255;48.730;9.156;2022-12-19T03:41:34;53.38;;;29.95;;
8435;SDS011;4255;48.730;9.156;2022-12-19T03:44:21;65.80;;;30.05;;
8435;SDS011;4255;48.730;9.156;2022-12-19T03:47:05;59.90;;;30.20;;
8435;SDS011;4255;48.730;9.156;2022-12-19T03:53:01;61.40;;;29.08;;
8435;SDS011;4255;48.730;9.156;2022-12-19T03:55:46;55.05;;;26.70;;
8435;SDS011;4255;48.730;9.156;2022-12-19T03:58:18;56.22;;;28.48;;
8435;SDS011;4255;48.730;9.156;2022-12-19T04:00:52;54.28;;;26.55;;
8435;SDS011;4255;48.730;9.156;2022-12-19T04:03:19;51.95;;;26.80;;
8435;SDS011;4255;48.730;9.156;2022-12-19T04:05:46;52.88;;;26.60;;
8435;SDS011;4255;48.730;9.156;2022-12-19T04:08:13;55.55;;;26.52;;
8435;SDS011;4255;48.730;9.156;2022-12-19T04:10:42;51.78;;;25.52;;
8435;SDS011;4255;48.730;9.156;2022-12-19T04:13:16;56.38;;;28.55;;
8435;SDS011;4255;48.730;9.156;2022-12-19T04:18:28;48.30;;;26.38;;
8435;SDS011;4255;48.730;9.156;2022-12-19T04:21:00;54.70;;;27.23;;
8435;SDS011;4255;48.730;9.156;2022-12-19T04:23:33;48.90;;;24.70;;
8435;SDS011;4255;48.730;9.156;2022-12-19T04:26:03;57.03;;;27.35;;
8435;SDS011;4255;48.730;9.156;2022-12-19T04:28:39;58.17;;;27.67;;
8435;SDS011;4255;48.730;9.156;2022-12-19T04:31:13;57.10;;;25.00;;
8435;SDS011;4255;48.730;9.156;2022-12-19T04:33:40;59.10;;;25.85;;
8435;SDS011;4255;48.730;9.156;2022-12-19T04:36:06;45.90;;;25.80;;
8435;SDS011;4255;48.730;9.156;2022-12-19T04:38:31;48.67;;;27.63;;
8435;SDS011;4255;48.730;9.156;2022-12-19T04:40:57;50.10;;;26.50;;
8435;SDS011;4255;48.730;9.156;2022-12-19T04:43:23;45.60;;;26.23;;
8435;SDS011;4255;48.730;9.156;2022-12-19T04:45:48;53.27;;;26.10;;
8435;SDS011;4255;48.730;9.156;2022-12-19T04:48:14;53.43;;;25.23;;
8435;SDS011;4255;48.730;9.156;2022-12-19T04:50:40;63.03;;;26.87;;
8435;SDS011;4255;48.730;9.156;2022-12-19T04:53:05;51.40;;;25.50;;
8435;SDS011;4255;48.730;9.156;2022-12-19T04:55:31;47.93;;;26.13;;
8435;SDS011;4255;48.730;9.156;2022-12-19T04:57:57;53.03;;;25.77;;
8435;SDS011;4255;48.730;9.156;2022-12-19T05:00:23;41.60;;;23.77;;
8435;SDS011;4255;48.730;9.156;2022-12-19T05:02:48;41.33;;;23.25;;
8435;SDS011;4255;48.730;9.156;2022-12-19T05:05:14;45.83;;;24.17;;
8435;SDS011;4255;48.730;9.156;2022-12-19T05:07:42;43.50;;;21.90;;
8435;SDS011;4255;48.730;9.156;2022-12-19T05:10:07;41.93;;;24.10;;
8435;SDS011;4255;48.730;9.156;2022-12-19T05:12:33;43.60;;;22.30;;
8435;SDS011;4255;48.730;9.156;2022-12-19T05:14:59;54.70;;;30.20;;
8435;SDS011;4255;48.730;9.156;2022-12-19T05:17:24;54.63;;;27.80;;
8435;SDS011;4255;48.730;9.156;2022-12-19T05:19:50;55.83;;;29.17;;
8435;SDS011;4255;48.730;9.156;2022-12-19T05:22:15;56.57;;;28.40;;
8435;SDS011;4255;48.730;9.156;2022-12-19T05:24:41;52.03;;;29.10;;
8435;SDS011;4255;48.730;9.156;2022-12-19T05:27:07;53.97;;;28.70;;
8435;SDS011;4255;48.730;9.156;2022-12-19T05:29:32;58.27;;;29.87;;
8435;SDS011;4255;48.730;9.156;2022-12-19T05:31:58;62.22;;;31.10;;
8435;SDS011;4255;48.730;9.156;2022-12-19T05:34:24;64.57;;;29.43;;
8435;SDS011;4255;48.730;9.156;2022-12-19T05:36:50;66.33;;;30.17;;
8435;SDS011;4255;48.730;9.156;2022-12-19T05:39:15;48.27;;;25.60;;
8435;SDS011;4255;48.730;9.156;2022-12-19T05:41:41;48.93;;;25.70;;
8435;SDS011;4255;48.730;9.156;2022-12-19T05:44:07;48.30;;;25.37;;
8435;SDS011;4255;48.730;9.156;2022-12-19T05:46:34;53.55;;;27.08;;
8435;SDS011;4255;48.730;9.156;2022-12-19T05:49:00;55.45;;;29.27;;
8435;SDS011;4255;48.730;9.156;2022-12-19T05:51:25;57.80;;;33.13;;
8435;SDS011;4255;48.730;9.156;2022-12-19T05:53:51;54.27;;;28.90;;
8435;SDS011;4255;48.730;9.156;2022-12-19T05:56:18;57.60;;;28.20;;
8435;SDS011;4255;48.730;9.156;2022-12-19T05:58:45;46.60;;;25.75;;
8435;SDS011;4255;48.730;9.156;2022-12-19T06:01:16;55.95;;;26.38;;
8435;SDS011;4255;48.730;9.156;2022-12-19T06:03:44;45.00;;;25.15;;
8435;SDS011;4255;48.730;9.156;2022-12-19T06:06:11;54.20;;;26.35;;
8435;SDS011;4255;48.730;9.156;2022-12-19T06:08:38;47.38;;;25.42;;
8435;SDS011;4255;48.730;9.156;2022-12-19T06:11:05;53.33;;;28.05;;
8435;SDS011;4255;48.730;9.156;2022-12-19T06:13:32;51.28;;;25.58;;
8435;SDS011;4255;48.730;9.156;2022-12-19T06:16:03;38.08;;;21.67;;
8435;SDS011;4255;48.730;9.156;2022-12-19T06:18:34;46.63;;;24.15;;
8435;SDS011;4255;48.730;9.156;2022-12-19T06:21:01;65.30;;;23.87;;
8435;SDS011;4255;48.730;9.156;2022-12-19T06:23:30;43.95;;;24.98;;
8435;SDS011;4255;48.730;9.156;2022-12-19T06:25:58;43.83;;;24.25;;
8435;SDS011;4255;48.730;9.156;2022-12-19T06:28:25;48.13;;;23.38;;
8435;SDS011;4255;48.730;9.156;2022-12-19T06:30:51;43.72;;;25.20;;
8435;SDS011;4255;48.730;9.156;2022-12-19T06:33:19;45.47;;;22.35;;
8435;SDS011;4255;48.730;9.156;2022-12-19T06:35:44;47.90;;;24.80;;
8435;SDS011;4255;48.730;9.156;2022-12-19T06:38:10;46.97;;;26.53;;
8435;SDS011;4255;48.730;9.156;2022-12-19T06:40:39;40.50;;;22.43;;
8435;SDS011;4255;48.730;9.156;2022-12-19T06:43:25;48.85;;;24.73;;
8435;SDS011;4255;48.730;9.156;2022-12-19T06:45:51;44.13;;;22.63;;
8435;SDS011;4255;48.730;9.156;2022-12-19T06:48:16;40.07;;;21.13;;
8435;SDS011;4255;48.730;9.156;2022-12-19T06:50:42;46.10;;;22.37;;
8435;SDS011;4255;48.730;9.156;2022-12-19T06:53:08;45.20;;;26.33;;
8435;SDS011;4255;48.730;9.156;2022-12-19T06:55:36;40.93;;;22.27;;
8435;SDS011;4255;48.730;9.156;2022-12-19T06:58:02;41.53;;;22.40;;
8435;SDS011;4255;48.730;9.156;2022-12-19T07:00:28;51.08;;;25.45;;
8435;SDS011;4255;48.730;9.156;2022-12-19T07:02:54;45.27;;;24.07;;
8435;SDS011;4255;48.730;9.156;2022-12-19T07:05:21;52.05;;;25.25;;
8435;SDS011;4255;48.730;9.156;2022-12-19T07:07:47;39.27;;;21.57;;
8435;SDS011;4255;48.730;9.156;2022-12-19T07:10:14;50.10;;;24.10;;
8435;SDS011;4255;48.730;9.156;2022-12-19T07:12:39;47.23;;;24.70;;
8435;SDS011;4255;48.730;9.156;2022-12-19T07:15:05;49.80;;;26.37;;
8435;SDS011;4255;48.730;9.156;2022-12-19T07:17:31;45.35;;;23.13;;
8435;SDS011;4255;48.730;9.156;2022-12-19T07:20:01;42.67;;;22.35;;
8435;SDS011;4255;48.730;9.156;2022-12-19T07:22:30;39.80;;;22.70;;
8435;SDS011;4255;48.730;9.156;2022-12-19T07:24:58;45.72;;;23.67;;
8435;SDS011;4255;48.730;9.156;2022-12-19T07:27:25;49.20;;;22.95;;
8435;SDS011;4255;48.730;9.156;2022-12-19T07:29:52;49.85;;;23.70;;
8435;SDS011;4255;48.730;9.156;2022-12-19T07:32:18;44.88;;;21.98;;
8435;SDS011;4255;48.730;9.156;2022-12-19T07:34:44;49.08;;;22.17;;
8435;SDS011;4255;48.730;9.156;2022-12-19T07:37:10;47.83;;;22.57;;
8435;SDS011;4255;48.730;9.156;2022-12-19T07:39:35;55.10;;;23.83;;
8435;SDS011;4255;48.730;9.156;2022-12-19T07:42:01;41.37;;;21.13;;
8435;SDS011;4255;48.730;9.156;2022-12-19T07:44:26;53.07;;;20.67;;
8435;SDS011;4255;48.730;9.156;2022-12-19T07:46:52;48.73;;;23.30;;
8435;SDS011;4255;48.730;9.156;2022-12-19T07:49:18;41.90;;;23.53;;
8435;SDS011;4255;48.730;9.156;2022-12-19T07:51:43;40.07;;;23.03;;
8435;SDS011;4255;48.730;9.156;2022-12-19T07:54:09;48.43;;;22.97;;
8435;SDS011;4255;48.730;9.156;2022-12-19T07:56:34;35.37;;;20.77;;
8435;SDS011;4255;48.730;9.156;2022-12-19T07:59:00;35.53;;;19.10;;
8435;SDS011;4255;48.730;9.156;2022-12-19T08:01:26;35.90;;;19.20;;
8435;SDS011;4255;48.730;9.156;2022-12-19T08:03:55;34.07;;;19.07;;
8435;SDS011;4255;48.730;9.156;2022-12-19T08:06:22;35.17;;;20.05;;
8435;SDS011;4255;48.730;9.156;2022-12-19T08:08:48;37.97;;;19.65;;
8435;SDS011;4255;48.730;9.156;2022-12-19T08:11:16;34.50;;;20.40;;
8435;SDS011;4255;48.730;9.156;2022-12-19T08:13:46;40.45;;;21.52;;
8435;SDS011;4255;48.730;9.156;2022-12-19T08:16:12;38.25;;;20.10;;
8435;SDS011;4255;48.730;9.156;2022-12-19T08:18:38;42.75;;;20.35;;
8435;SDS011;4255;48.730;9.156;2022-12-19T08:21:04;31.93;;;19.57;;
8435;SDS011;4255;48.730;9.156;2022-12-19T08:23:31;39.75;;;20.98;;
8435;SDS011;4255;48.730;9.156;2022-12-19T08:26:04;49.87;;;22.90;;
8435;SDS011;4255;48.730;9.156;2022-12-19T08:28:32;42.05;;;21.77;;
8435;SDS011;4255;48.730;9.156;2022-12-19T08:31:04;43.92;;;22.13;;
8435;SDS011;4255;48.730;9.156;2022-12-19T08:33:34;40.88;;;19.58;;
8435;SDS011;4255;48.730;9.156;2022-12-19T08:36:10;37.65;;;20.23;;
8435;SDS011;4255;48.730;9.156;2022-12-19T08:38:38;38.13;;;18.67;;
8435;SDS011;4255;48.730;9.156;2022-12-19T08:41:04;31.90;;;19.60;;
8435;SDS011;4255;48.730;9.156;2022-12-19T08:43:30;33.72;;;18.40;;
8435;SDS011;4255;48.730;9.156;2022-12-19T08:45:56;34.60;;;17.40;;
8435;SDS011;4255;48.730;9.156;2022-12-19T08:48:23;32.40;;;19.13;;
8435;SDS011;4255;48.730;9.156;2022-12-19T08:50:50;26.05;;;16.63;;
8435;SDS011;4255;48.730;9.156;2022-12-19T08:53:17;30.83;;;16.45;;
8435;SDS011;4255;48.730;9.156;2022-12-19T08:55:43;30.87;;;18.37;;
8435;SDS011;4255;48.730;9.156;2022-12-19T08:58:08;35.37;;;18.97;;
8435;SDS011;4255;48.730;9.156;2022-12-19T09:00:34;29.30;;;17.27;;
8435;SDS011;4255;48.730;9.156;2022-12-19T09:03:00;36.78;;;19.50;;
8435;SDS011;4255;48.730;9.156;2022-12-19T09:05:26;28.20;;;16.50;;
8435;SDS011;4255;48.730;9.156;2022-12-19T09:07:51;34.00;;;19.30;;
8435;SDS011;4255;48.730;9.156;2022-12-19T09:10:18;28.20;;;16.63;;
8435;SDS011;4255;48.730;9.156;2022-12-19T09:12:44;32.13;;;17.40;;
8435;SDS011;4255;48.730;9.156;2022-12-19T09:15:10;29.95;;;16.83;;
8435;SDS011;4255;48.730;9.156;2022-12-19T09:17:36;31.35;;;17.42;;
8435;SDS011;4255;48.730;9.156;2022-12-19T09:20:02;27.90;;;15.77;;
8435;SDS011;4255;48.730;9.156;2022-12-19T09:22:28;28.40;;;16.92;;
8435;SDS011;4255;48.730;9.156;2022-12-19T09:24:54;28.23;;;17.23;;
8435;SDS011;4255;48.730;9.156;2022-12-19T09:27:19;29.27;;;16.47;;
8435;SDS011;4255;48.730;9.156;2022-12-19T09:29:45;31.37;;;16.70;;
8435;SDS011;4255;48.730;9.156;2022-12-19T09:32:10;28.17;;;15.90;;
8435;SDS011;4255;48.730;9.156;2022-12-19T09:34:36;24.80;;;15.43;;
8435;SDS011;4255;48.730;9.156;2022-12-19T09:37:02;27.05;;;16.92;;
8435;SDS011;4255;48.730;9.156;2022-12-19T09:39:28;29.53;;;16.93;;
8435;SDS011;4255;48.730;9.156;2022-12-19T09:42:04;31.83;;;16.50;;
8435;SDS011;4255;48.730;9.156;2022-12-19T09:47:19;26.15;;;15.68;;
8435;SDS011;4255;48.730;9.156;2022-12-19T09:49:47;26.08;;;15.63;;
8435;SDS011;4255;48.730;9.156;2022-12-19T09:52:22;34.53;;;18.13;;
8435;SDS011;4255;48.730;9.156;2022-12-19T09:54:56;29.33;;;16.65;;
8435;SDS011;4255;48.730;9.156;2022-12-19T09:57:43;27.60;;;15.20;;
8435;SDS011;4255;48.730;9.156;2022-12-19T10:00:20;32.13;;;17.50;;
8435;SDS011;4255;48.730;9.156;2022-12-19T10:02:56;23.95;;;14.98;;
8435;SDS011;4255;48.730;9.156;2022-12-19T10:05:33;28.90;;;17.42;;
8435;SDS011;4255;48.730;9.156;2022-12-19T10:08:15;30.13;;;15.35;;
8435;SDS011;4255;48.730;9.156;2022-12-19T10:11:21;28.33;;;16.35;;
8435;SDS011;4255;48.730;9.156;2022-12-19T10:14:24;37.15;;;17.08;;
8435;SDS011;4255;48.730;9.156;2022-12-19T10:16:56;27.55;;;15.75;;
8435;SDS011;4255;48.730;9.156;2022-12-19T10:28:14;25.10;;;17.13;;
8435;SDS011;4255;48.730;9.156;2022-12-19T10:30:18;26.17;;;16.58;;
8435;SDS011;4255;48.730;9.156;2022-12-19T10:33:06;22.70;;;14.88;;
8435;SDS011;4255;48.730;9.156;2022-12-19T10:35:47;26.60;;;14.73;;
8435;SDS011;4255;48.730;9.156;2022-12-19T10:38:20;25.95;;;16.05;;
8435;SDS011;4255;48.730;9.156;2022-12-19T10:41:18;23.27;;;14.52;;
8435;SDS011;4255;48.730;9.156;2022-12-19T10:49:22;22.23;;;14.80;;
8435;SDS011;4255;48.730;9.156;2022-12-19T10:52:03;26.00;;;14.18;;
8435;SDS011;4255;48.730;9.156;2022-12-19T10:59:50;26.10;;;14.38;;
8435;SDS011;4255;48.730;9.156;2022-12-19T11:03:03;18.25;;;12.18;;
8435;SDS011;4255;48.730;9.156;2022-12-19T11:05:50;21.30;;;13.55;;
8435;SDS011;4255;48.730;9.156;2022-12-19T11:08:16;25.05;;;13.20;;
8435;SDS011;4255;48.730;9.156;2022-12-19T11:13:27;23.02;;;13.32;;
8435;SDS011;4255;48.730;9.156;2022-12-19T11:16:04;20.42;;;12.57;;
8435;SDS011;4255;48.730;9.156;2022-12-19T11:23:48;21.55;;;14.00;;
8435;SDS011;4255;48.730;9.156;2022-12-19T11:26:27;15.48;;;11.02;;
8435;SDS011;4255;48.730;9.156;2022-12-19T11:29:18;17.33;;;12.27;;
8435;SDS011;4255;48.730;9.156;2022-12-19T11:31:52;20.35;;;11.95;;
8435;SDS011;4255;48.730;9.156;2022-12-19T11:34:30;17.70;;;11.60;;
8435;SDS011;4255;48.730;9.156;2022-12-19T11:42:31;20.90;;;14.88;;
8435;SDS011;4255;48.730;9.156;2022-12-19T11:45:13;27.05;;;14.93;;
8435;SDS011;4255;48.730;9.156;2022-12-19T11:47:47;25.52;;;16.73;;
8435;SDS011;4255;48.730;9.156;2022-12-19T11:50:23;26.33;;;15.75;;
8435;SDS011;4255;48.730;9.156;2022-12-19T11:53:01;25.67;;;15.63;;
8435;SDS011;4255;48.730;9.156;2022-12-19T11:58:35;25.17;;;15.95;;
8435;SDS011;4255;48.730;9.156;2022-12-19T12:03:43;31.00;;;15.75;;
8435;SDS011;4255;48.730;9.156;2022-12-19T12:06:59;26.13;;;15.85;;
8435;SDS011;4255;48.730;9.156;2022-12-19T12:17:31;27.95;;;15.13;;
8435;SDS011;4255;48.730;9.156;2022-12-19T12:23:28;27.55;;;13.98;;
8435;SDS011;4255;48.730;9.156;2022-12-19T12:26:28;22.30;;;14.70;;
8435;SDS011;4255;48.730;9.156;2022-12-19T12:45:57;20.65;;;12.82;;
8435;SDS011;4255;48.730;9.156;2022-12-19T12:48:26;21.70;;;12.50;;
8435;SDS011;4255;48.730;9.156;2022-12-19T12:51:01;19.45;;;12.20;;
8435;SDS011;4255;48.730;9.156;2022-12-19T12:53:32;23.25;;;11.90;;
8435;SDS011;4255;48.730;9.156;2022-12-19T12:55:59;19.45;;;12.38;;
8435;SDS011;4255;48.730;9.156;2022-12-19T13:09:26;20.45;;;12.85;;
8435;SDS011;4255;48.730;9.156;2022-12-19T13:23:00;19.37;;;12.07;;
8435;SDS011;4255;48.730;9.156;2022-12-19T13:30:26;21.77;;;13.23;;
8435;SDS011;4255;48.730;9.156;2022-12-19T13:43:38;17.30;;;11.55;;
8435;SDS011;4255;48.730;9.156;2022-12-19T13:49:01;22.15;;;12.00;;
8435;SDS011;4255;48.730;9.156;2022-12-19T13:51:48;18.40;;;12.30;;
8435;SDS011;4255;48.730;9.156;2022-12-19T13:54:22;20.25;;;12.77;;
8435;SDS011;4255;48.730;9.156;2022-12-19T13:56:51;18.95;;;11.70;;
8435;SDS011;4255;48.730;9.156;2022-12-19T13:59:18;23.00;;;12.95;;
8435;SDS011;4255;48.730;9.156;2022-12-19T14:01:45;21.35;;;12.88;;
8435;SDS011;4255;48.730;9.156;2022-12-19T14:04:30;20.77;;;13.05;;
8435;SDS011;4255;48.730;9.156;2022-12-19T14:07:20;21.50;;;12.43;;
8435;SDS011;4255;48.730;9.156;2022-12-19T14:09:47;15.65;;;12.00;;
8435;SDS011;4255;48.730;9.156;2022-12-19T14:12:23;21.08;;;12.00;;
8435;SDS011;4255;48.730;9.156;2022-12-19T14:17:52;14.15;;;10.13;;
8435;SDS011;4255;48.730;9.156;2022-12-19T14:20:19;13.90;;;11.03;;
8435;SDS011;4255;48.730;9.156;2022-12-19T14:22:48;17.30;;;11.13;;
8435;SDS011;4255;48.730;9.156;2022-12-19T14:25:15;18.77;;;10.68;;
8435;SDS011;4255;48.730;9.156;2022-12-19T14:27:42;15.18;;;9.68;;
8435;SDS011;4255;48.730;9.156;2022-12-19T14:30:19;13.02;;;9.45;;
8435;SDS011;4255;48.730;9.156;2022-12-19T14:32:48;16.48;;;11.02;;
8435;SDS011;4255;48.730;9.156;2022-12-19T14:35:17;17.00;;;10.98;;
8435;SDS011;4255;48.730;9.156;2022-12-19T14:37:48;15.43;;;10.77;;
8435;SDS011;4255;48.730;9.156;2022-12-19T14:40:33;15.93;;;10.75;;
8435;SDS011;4255;48.730;9.156;2022-12-19T14:43:08;113.40;;;50.78;;
8435;SDS011;4255;48.730;9.156;2022-12-19T14:56:32;41.38;;;26.85;;
8435;SDS011;4255;48.730;9.156;2022-12-19T14:59:51;50.10;;;33.30;;
8435;SDS011;4255;48.730;9.156;2022-12-19T15:06:57;34.53;;;24.63;;
8435;SDS011;4255;48.730;9.156;2022-12-19T15:09:25;32.60;;;22.75;;
8435;SDS011;4255;48.730;9.156;2022-12-19T15:11:53;20.77;;;14.30;;
8435;SDS011;4255;48.730;9.156;2022-12-19T15:14:45;23.23;;;13.23;;
8435;SDS011;4255;48.730;9.156;2022-12-19T15:17:19;22.75;;;13.27;;
8435;SDS011;4255;48.730;9.156;2022-12-19T15:19:45;21.30;;;12.43;;
8435;SDS011;4255;48.730;9.156;2022-12-19T15:22:11;17.17;;;12.82;;
8435;SDS011;4255;48.730;9.156;2022-12-19T15:24:37;18.40;;;11.80;;
8435;SDS011;4255;48.730;9.156;2022-12-19T15:27:02;18.67;;;12.60;;
8435;SDS011;4255;48.730;9.156;2022-12-19T15:29:28;17.97;;;11.17;;
8435;SDS011;4255;48.730;9.156;2022-12-19T15:31:57;21.85;;;13.15;;
8435;SDS011;4255;48.730;9.156;2022-12-19T15:34:26;22.10;;;13.90;;
8435;SDS011;4255;48.730;9.156;2022-12-19T15:36:53;22.27;;;13.48;;
8435;SDS011;4255;48.730;9.156;2022-12-19T15:39:20;29.67;;;15.10;;
8435;SDS011;4255;48.730;9.156;2022-12-19T15:41:47;25.38;;;17.40;;
8435;SDS011;4255;48.730;9.156;2022-12-19T15:44:16;30.70;;;17.83;;
8435;SDS011;4255;48.730;9.156;2022-12-19T15:46:42;31.45;;;20.42;;
8435;SDS011;4255;48.730;9.156;2022-12-19T15:49:15;27.58;;;17.17;;
8435;SDS011;4255;48.730;9.156;2022-12-19T15:51:43;30.77;;;19.17;;
8435;SDS011;4255;48.730;9.156;2022-12-19T15:54:09;29.65;;;18.65;;
8435;SDS011;4255;48.730;9.156;2022-12-19T15:56:36;30.53;;;19.17;;
8435;SDS011;4255;48.730;9.156;2022-12-19T15:59:03;20.73;;;15.35;;
8435;SDS011;4255;48.730;9.156;2022-12-19T16:01:30;23.23;;;14.85;;
8435;SDS011;4255;48.730;9.156;2022-12-19T16:03:57;21.23;;;14.52;;
8435;SDS011;4255;48.730;9.156;2022-12-19T16:06:24;19.83;;;13.10;;
8435;SDS011;4255;48.730;9.156;2022-12-19T16:08:50;21.87;;;13.23;;
8435;SDS011;4255;48.730;9.156;2022-12-19T16:11:20;23.27;;;15.27;;
8435;SDS011;4255;48.730;9.156;2022-12-19T16:13:52;23.38;;;14.38;;
8435;SDS011;4255;48.730;9.156;2022-12-19T16:16:20;24.75;;;15.25;;
8435;SDS011;4255;48.730;9.156;2022-12-19T16:18:46;20.97;;;15.27;;
8435;SDS011;4255;48.730;9.156;2022-12-19T16:21:22;22.58;;;14.45;;
8435;SDS011;4255;48.730;9.156;2022-12-19T16:23:49;21.15;;;15.02;;
8435;SDS011;4255;48.730;9.156;2022-12-19T16:26:36;20.55;;;15.10;;
8435;SDS011;4255;48.730;9.156;2022-12-19T16:29:03;24.35;;;15.68;;
8435;SDS011;4255;48.730;9.156;2022-12-19T16:31:30;22.27;;;14.80;;
8435;SDS011;4255;48.730;9.156;2022-12-19T16:33:56;24.23;;;17.43;;
8435;SDS011;4255;48.730;9.156;2022-12-19T16:36:21;19.47;;;14.70;;
8435;SDS011;4255;48.730;9.156;2022-12-19T16:38:47;21.37;;;15.07;;
8435;SDS011;4255;48.730;9.156;2022-12-19T16:41:22;23.60;;;14.90;;
8435;SDS011;4255;48.730;9.156;2022-12-19T16:43:49;23.63;;;16.33;;
8435;SDS011;4255;48.730;9.156;2022-12-19T16:46:16;26.92;;;16.35;;
8435;SDS011;4255;48.730;9.156;2022-12-19T16:48:44;22.27;;;15.95;;
8435;SDS011;4255;48.730;9.156;2022-12-19T16:51:21;21.48;;;15.80;;
8435;SDS011;4255;48.730;9.156;2022-12-19T16:53:49;22.23;;;16.40;;
8435;SDS011;4255;48.730;9.156;2022-12-19T16:56:19;23.38;;;16.83;;
8435;SDS011;4255;48.730;9.156;2022-12-19T16:59:14;27.70;;;15.13;;
8435;SDS011;4255;48.730;9.156;2022-12-19T17:01:45;25.88;;;17.40;;
8435;SDS011;4255;48.730;9.156;2022-12-19T17:04:13;24.42;;;16.40;;
8435;SDS011;4255;48.730;9.156;2022-12-19T17:06:40;27.38;;;17.40;;
8435;SDS011;4255;48.730;9.156;2022-12-19T17:09:07;20.23;;;16.00;;
8435;SDS011;4255;48.730;9.156;2022-12-19T17:11:45;24.77;;;15.35;;
8435;SDS011;4255;48.730;9.156;2022-12-19T17:14:17;22.63;;;14.75;;
8435;SDS011;4255;48.730;9.156;2022-12-19T17:16:45;28.73;;;15.98;;
8435;SDS011;4255;48.730;9.156;2022-12-19T17:19:21;21.85;;;14.93;;
8435;SDS011;4255;48.730;9.156;2022-12-19T17:21:49;24.60;;;14.45;;
8435;SDS011;4255;48.730;9.156;2022-12-19T17:24:16;21.23;;;15.50;;
8435;SDS011;4255;48.730;9.156;2022-12-19T17:26:42;27.02;;;18.30;;
8435;SDS011;4255;48.730;9.156;2022-12-19T17:29:09;31.92;;;19.77;;
8435;SDS011;4255;48.730;9.156;2022-12-19T17:31:35;26.25;;;17.52;;
8435;SDS011;4255;48.730;9.156;2022-12-19T17:34:06;30.20;;;19.52;;
8435;SDS011;4255;48.730;9.156;2022-12-19T17:36:51;27.05;;;17.13;;
8435;SDS011;4255;48.730;9.156;2022-12-19T17:39:19;31.80;;;19.00;;
8435;SDS011;4255;48.730;9.156;2022-12-19T17:41:47;23.80;;;16.98;;
8435;SDS011;4255;48.730;9.156;2022-12-19T17:44:13;30.10;;;17.42;;
8435;SDS011;4255;48.730;9.156;2022-12-19T17:46:39;26.17;;;16.33;;
8435;SDS011;4255;48.730;9.156;2022-12-19T17:49:05;29.17;;;17.33;;
8435;SDS011;4255;48.730;9.156;2022-12-19T17:51:37;30.15;;;18.20;;
8435;SDS011;4255;48.730;9.156;2022-12-19T17:54:03;25.63;;;17.90;;